sensor_id;sensor_type;location;lat;lon;timestamp;P1;durP1;ratioP1;P2;durP2;ratioP2
209;SDS011;90;48.810;9.120;2023-06-14T00:00:00;11.90;;;7.10;;
209;SDS011;90;48.810;9.120;2023-06-14T00:02:29;9.27;;;7.03;;
209;SDS011;90;48.810;9.120;2023-06-14T00:04:57;8.30;;;7.13;;
209;SDS011;90;48.810;9.120;2023-06-14T00:07:33;10.27;;;7.13;;
209;SDS011;90;48.810;9.120;2023-06-14T00:10:01;9.70;;;6.57;;
209;SDS011;90;48.810;9.120;2023-06-14T00:12:29;8.67;;;7.30;;
209;SDS011;90;48.810;9.120;2023-06-14T00:14:56;8.43;;;7.07;;
209;SDS011;90;48.810;9.120;2023-06-14T00:17:23;8.43;;;6.97;;
209;SDS011;90;48.810;9.120;2023-06-14T00:19:55;9.57;;;7.30;;
209;SDS011;90;48.810;9.120;2023-06-14T00:22:23;12.93;;;7.70;;
209;SDS011;90;48.810;9.120;2023-06-14T00:24:50;10.77;;;7.27;;
209;SDS011;90;48.810;9.120;2023-06-14T00:27:17;10.50;;;7.67;;
209;SDS011;90;48.810;9.120;2023-06-14T00:29:43;9.07;;;6.93;;
209;SDS011;90;48.810;9.120;2023-06-14T00:32:10;12.30;;;7.80;;
209;SDS011;90;48.810;9.120;2023-06-14T00:34:37;9.40;;;7.00;;
209;SDS011;90;48.810;9.120;2023-06-14T00:37:05;9.63;;;7.20;;
209;SDS011;90;48.810;9.120;2023-06-14T00:39:32;12.00;;;7.50;;
209;SDS011;90;48.810;9.120;2023-06-14T00:41:58;12.67;;;7.47;;
209;SDS011;90;48.810;9.120;2023-06-14T00:44:25;11.07;;;7.80;;
209;SDS011;90;48.810;9.120;2023-06-14T00:46:52;8.97;;;6.83;;
209;SDS011;90;48.810;9.120;2023-06-14T00:49:18;9.67;;;7.43;;
209;SDS011;90;48.810;9.120;2023-06-14T00:51:46;11.70;;;7.10;;
209;SDS011;90;48.810;9.120;2023-06-14T00:54:14;8.83;;;6.90;;
209;SDS011;90;48.810;9.120;2023-06-14T00:56:43;14.80;;;7.47;;
209;SDS011;90;48.810;9.120;2023-06-14T00:59:10;7.80;;;6.83;;
209;SDS011;90;48.810;9.120;2023-06-14T01:01:37;9.23;;;6.83;;
209;SDS011;90;48.810;9.120;2023-06-14T01:04:04;7.50;;;7.00;;
209;SDS011;90;48.810;9.120;2023-06-14T01:06:32;10.43;;;7.70;;
209;SDS011;90;48.810;9.120;2023-06-14T01:09:07;11.20;;;7.00;;
209;SDS011;90;48.810;9.120;2023-06-14T01:11:44;8.33;;;7.03;;
209;SDS011;90;48.810;9.120;2023-06-14T01:14:19;8.80;;;7.13;;
209;SDS011;90;48.810;9.120;2023-06-14T01:16:47;11.07;;;7.13;;
209;SDS011;90;48.810;9.120;2023-06-14T01:19:18;9.80;;;7.40;;
209;SDS011;90;48.810;9.120;2023-06-14T01:21:47;12.00;;;7.43;;
209;SDS011;90;48.810;9.120;2023-06-14T01:24:18;9.27;;;7.30;;
209;SDS011;90;48.810;9.120;2023-06-14T01:26:50;11.00;;;7.53;;
209;SDS011;90;48.810;9.120;2023-06-14T01:32:42;12.37;;;7.00;;
209;SDS011;90;48.810;9.120;2023-06-14T01:35:10;12.13;;;7.20;;
209;SDS011;90;48.810;9.120;2023-06-14T01:37:37;10.37;;;7.20;;
209;SDS011;90;48.810;9.120;2023-06-14T01:40:07;10.10;;;7.70;;
209;SDS011;90;48.810;9.120;2023-06-14T01:42:36;9.80;;;6.93;;
209;SDS011;90;48.810;9.120;2023-06-14T01:45:05;11.70;;;7.47;;
209;SDS011;90;48.810;9.120;2023-06-14T01:47:33;10.70;;;7.40;;
209;SDS011;90;48.810;9.120;2023-06-14T01:50:00;10.13;;;7.40;;
209;SDS011;90;48.810;9.120;2023-06-14T01:52:28;10.73;;;7.90;;
209;SDS011;90;48.810;9.120;2023-06-14T01:54:55;9.10;;;6.90;;
209;SDS011;90;48.810;9.120;2023-06-14T01:57:24;12.60;;;6.90;;
209;SDS011;90;48.810;9.120;2023-06-14T01:59:52;7.97;;;6.97;;
209;SDS011;90;48.810;9.120;2023-06-14T02:02:21;8.83;;;7.00;;
209;SDS011;90;48.810;9.120;2023-06-14T02:04:48;11.67;;;7.37;;
209;SDS011;90;48.810;9.120;2023-06-14T02:07:14;8.73;;;7.20;;
209;SDS011;90;48.810;9.120;2023-06-14T02:09:41;7.63;;;7.13;;
209;SDS011;90;48.810;9.120;2023-06-14T02:12:08;13.27;;;8.00;;
209;SDS011;90;48.810;9.120;2023-06-14T02:14:37;10.87;;;7.03;;
209;SDS011;90;48.810;9.120;2023-06-14T02:17:04;8.43;;;7.30;;
209;SDS011;90;48.810;9.120;2023-06-14T02:19:31;10.37;;;7.70;;
209;SDS011;90;48.810;9.120;2023-06-14T02:21:58;10.23;;;7.80;;
209;SDS011;90;48.810;9.120;2023-06-14T02:24:25;9.93;;;7.60;;
209;SDS011;90;48.810;9.120;2023-06-14T02:26:52;12.23;;;7.43;;
209;SDS011;90;48.810;9.120;2023-06-14T02:29:18;7.97;;;6.70;;
209;SDS011;90;48.810;9.120;2023-06-14T02:31:47;10.40;;;7.67;;
209;SDS011;90;48.810;9.120;2023-06-14T02:34:14;8.97;;;7.10;;
209;SDS011;90;48.810;9.120;2023-06-14T02:36:42;13.17;;;7.63;;
209;SDS011;90;48.810;9.120;2023-06-14T02:39:09;11.63;;;7.77;;
209;SDS011;90;48.810;9.120;2023-06-14T02:41:37;9.07;;;7.40;;
209;SDS011;90;48.810;9.120;2023-06-14T02:44:04;9.80;;;7.10;;
209;SDS011;90;48.810;9.120;2023-06-14T02:46:31;9.23;;;7.03;;
209;SDS011;90;48.810;9.120;2023-06-14T02:48:59;12.30;;;8.33;;
209;SDS011;90;48.810;9.120;2023-06-14T02:51:26;10.20;;;7.37;;
209;SDS011;90;48.810;9.120;2023-06-14T02:53:52;12.57;;;8.00;;
209;SDS011;90;48.810;9.120;2023-06-14T02:56:20;9.20;;;7.30;;
209;SDS011;90;48.810;9.120;2023-06-14T02:58:47;11.90;;;7.90;;
209;SDS011;90;48.810;9.120;2023-06-14T03:01:15;9.10;;;7.30;;
209;SDS011;90;48.810;9.120;2023-06-14T03:03:43;13.20;;;7.27;;
209;SDS011;90;48.810;9.120;2023-06-14T03:06:11;13.50;;;8.37;;
209;SDS011;90;48.810;9.120;2023-06-14T03:08:39;12.90;;;8.20;;
209;SDS011;90;48.810;9.120;2023-06-14T03:11:06;9.63;;;7.50;;
209;SDS011;90;48.810;9.120;2023-06-14T03:13:33;11.60;;;7.70;;
209;SDS011;90;48.810;9.120;2023-06-14T03:16:00;9.03;;;6.77;;
209;SDS011;90;48.810;9.120;2023-06-14T03:18:27;15.57;;;7.80;;
209;SDS011;90;48.810;9.120;2023-06-14T03:20:55;10.87;;;7.70;;
209;SDS011;90;48.810;9.120;2023-06-14T03:23:24;9.93;;;7.13;;
209;SDS011;90;48.810;9.120;2023-06-14T03:25:52;11.33;;;7.60;;
209;SDS011;90;48.810;9.120;2023-06-14T03:28:19;9.00;;;7.60;;
209;SDS011;90;48.810;9.120;2023-06-14T03:30:46;13.10;;;7.93;;
209;SDS011;90;48.810;9.120;2023-06-14T03:33:12;10.60;;;8.10;;
209;SDS011;90;48.810;9.120;2023-06-14T03:35:40;8.53;;;7.97;;
209;SDS011;90;48.810;9.120;2023-06-14T03:38:07;12.93;;;8.60;;
209;SDS011;90;48.810;9.120;2023-06-14T03:40:35;12.97;;;8.10;;
209;SDS011;90;48.810;9.120;2023-06-14T03:43:02;9.40;;;7.30;;
209;SDS011;90;48.810;9.120;2023-06-14T03:45:29;14.23;;;8.20;;
209;SDS011;90;48.810;9.120;2023-06-14T03:47:56;12.93;;;8.53;;
209;SDS011;90;48.810;9.120;2023-06-14T03:50:26;9.27;;;7.90;;
209;SDS011;90;48.810;9.120;2023-06-14T03:52:53;9.80;;;7.63;;
209;SDS011;90;48.810;9.120;2023-06-14T03:55:20;10.03;;;8.07;;
209;SDS011;90;48.810;9.120;2023-06-14T03:57:51;17.80;;;9.00;;
209;SDS011;90;48.810;9.120;2023-06-14T04:00:18;9.57;;;7.73;;
209;SDS011;90;48.810;9.120;2023-06-14T04:02:48;10.80;;;7.70;;
209;SDS011;90;48.810;9.120;2023-06-14T04:05:15;13.73;;;8.10;;
209;SDS011;90;48.810;9.120;2023-06-14T04:07:44;11.40;;;7.73;;
209;SDS011;90;48.810;9.120;2023-06-14T04:10:11;14.53;;;8.30;;
209;SDS011;90;48.810;9.120;2023-06-14T04:12:38;8.90;;;7.47;;
209;SDS011;90;48.810;9.120;2023-06-14T04:15:07;10.50;;;7.93;;
209;SDS011;90;48.810;9.120;2023-06-14T04:17:36;10.80;;;8.10;;
209;SDS011;90;48.810;9.120;2023-06-14T04:20:04;12.47;;;8.50;;
209;SDS011;90;48.810;9.120;2023-06-14T04:22:34;10.50;;;7.90;;
209;SDS011;90;48.810;9.120;2023-06-14T04:25:02;8.80;;;7.50;;
209;SDS011;90;48.810;9.120;2023-06-14T04:27:31;13.50;;;8.73;;
209;SDS011;90;48.810;9.120;2023-06-14T04:30:01;11.03;;;8.90;;
209;SDS011;90;48.810;9.120;2023-06-14T04:32:30;12.17;;;8.17;;
209;SDS011;90;48.810;9.120;2023-06-14T04:34:58;13.40;;;8.07;;
209;SDS011;90;48.810;9.120;2023-06-14T04:37:27;14.90;;;7.93;;
209;SDS011;90;48.810;9.120;2023-06-14T04:39:54;13.60;;;8.33;;
209;SDS011;90;48.810;9.120;2023-06-14T04:42:23;11.47;;;7.90;;
209;SDS011;90;48.810;9.120;2023-06-14T04:44:55;12.50;;;8.70;;
209;SDS011;90;48.810;9.120;2023-06-14T04:47:22;13.27;;;8.70;;
209;SDS011;90;48.810;9.120;2023-06-14T04:49:51;12.10;;;8.40;;
209;SDS011;90;48.810;9.120;2023-06-14T04:52:18;13.60;;;9.53;;
209;SDS011;90;48.810;9.120;2023-06-14T04:54:46;12.67;;;8.43;;
209;SDS011;90;48.810;9.120;2023-06-14T04:57:12;13.67;;;10.00;;
209;SDS011;90;48.810;9.120;2023-06-14T04:59:42;14.77;;;9.77;;
209;SDS011;90;48.810;9.120;2023-06-14T05:02:09;17.37;;;10.40;;
209;SDS011;90;48.810;9.120;2023-06-14T05:04:36;14.90;;;8.73;;
209;SDS011;90;48.810;9.120;2023-06-14T05:07:07;13.30;;;9.53;;
209;SDS011;90;48.810;9.120;2023-06-14T05:09:35;15.60;;;9.20;;
209;SDS011;90;48.810;9.120;2023-06-14T05:12:02;14.10;;;9.33;;
209;SDS011;90;48.810;9.120;2023-06-14T05:14:30;17.23;;;9.70;;
209;SDS011;90;48.810;9.120;2023-06-14T05:16:56;16.57;;;9.70;;
209;SDS011;90;48.810;9.120;2023-06-14T05:19:23;13.30;;;10.00;;
209;SDS011;90;48.810;9.120;2023-06-14T05:21:50;18.67;;;10.17;;
209;SDS011;90;48.810;9.120;2023-06-14T05:24:19;5.60;;;5.30;;
209;SDS011;90;48.810;9.120;2023-06-14T05:26:46;7.17;;;5.70;;
209;SDS011;90;48.810;9.120;2023-06-14T05:29:14;7.00;;;6.07;;
209;SDS011;90;48.810;9.120;2023-06-14T05:31:40;12.55;;;7.40;;
209;SDS011;90;48.810;9.120;2023-06-14T05:34:07;9.57;;;7.40;;
209;SDS011;90;48.810;9.120;2023-06-14T05:36:34;12.70;;;7.93;;
209;SDS011;90;48.810;9.120;2023-06-14T05:39:02;12.13;;;8.50;;
209;SDS011;90;48.810;9.120;2023-06-14T05:41:31;8.73;;;8.10;;
209;SDS011;90;48.810;9.120;2023-06-14T05:43:58;10.37;;;8.70;;
209;SDS011;90;48.810;9.120;2023-06-14T05:46:26;10.40;;;7.20;;
209;SDS011;90;48.810;9.120;2023-06-14T05:48:53;12.33;;;9.10;;
209;SDS011;90;48.810;9.120;2023-06-14T05:51:21;14.53;;;8.80;;
209;SDS011;90;48.810;9.120;2023-06-14T05:53:49;13.03;;;9.60;;
209;SDS011;90;48.810;9.120;2023-06-14T05:56:16;15.73;;;9.87;;
209;SDS011;90;48.810;9.120;2023-06-14T05:58:45;11.33;;;9.40;;
209;SDS011;90;48.810;9.120;2023-06-14T06:01:12;18.60;;;10.80;;
209;SDS011;90;48.810;9.120;2023-06-14T06:03:39;12.17;;;9.30;;
209;SDS011;90;48.810;9.120;2023-06-14T06:06:06;11.13;;;9.33;;
209;SDS011;90;48.810;9.120;2023-06-14T06:08:33;12.47;;;9.83;;
209;SDS011;90;48.810;9.120;2023-06-14T06:11:00;11.50;;;8.40;;
209;SDS011;90;48.810;9.120;2023-06-14T06:13:26;11.80;;;8.60;;
209;SDS011;90;48.810;9.120;2023-06-14T06:15:54;17.50;;;9.63;;
209;SDS011;90;48.810;9.120;2023-06-14T06:18:21;16.77;;;9.83;;
209;SDS011;90;48.810;9.120;2023-06-14T06:20:48;22.83;;;9.50;;
209;SDS011;90;48.810;9.120;2023-06-14T06:23:15;13.47;;;9.37;;
209;SDS011;90;48.810;9.120;2023-06-14T06:25:42;16.57;;;10.20;;
209;SDS011;90;48.810;9.120;2023-06-14T06:28:09;15.53;;;9.50;;
209;SDS011;90;48.810;9.120;2023-06-14T06:30:35;12.20;;;8.23;;
209;SDS011;90;48.810;9.120;2023-06-14T06:33:03;14.67;;;9.63;;
209;SDS011;90;48.810;9.120;2023-06-14T06:35:30;13.90;;;9.17;;
209;SDS011;90;48.810;9.120;2023-06-14T06:37:58;10.47;;;9.03;;
209;SDS011;90;48.810;9.120;2023-06-14T06:40:25;17.20;;;11.00;;
209;SDS011;90;48.810;9.120;2023-06-14T06:42:51;13.87;;;9.73;;
209;SDS011;90;48.810;9.120;2023-06-14T06:45:18;12.53;;;8.90;;
209;SDS011;90;48.810;9.120;2023-06-14T06:47:45;11.50;;;9.10;;
209;SDS011;90;48.810;9.120;2023-06-14T06:50:13;11.87;;;9.23;;
209;SDS011;90;48.810;9.120;2023-06-14T06:52:39;11.97;;;10.07;;
209;SDS011;90;48.810;9.120;2023-06-14T06:55:06;10.37;;;8.80;;
209;SDS011;90;48.810;9.120;2023-06-14T06:57:36;11.13;;;9.60;;
209;SDS011;90;48.810;9.120;2023-06-14T07:00:03;10.93;;;8.40;;
209;SDS011;90;48.810;9.120;2023-06-14T07:02:33;14.87;;;10.20;;
209;SDS011;90;48.810;9.120;2023-06-14T07:05:00;13.95;;;10.20;;
209;SDS011;90;48.810;9.120;2023-06-14T07:07:28;15.13;;;10.93;;
209;SDS011;90;48.810;9.120;2023-06-14T07:09:55;13.50;;;10.27;;
209;SDS011;90;48.810;9.120;2023-06-14T07:12:22;13.20;;;11.17;;
209;SDS011;90;48.810;9.120;2023-06-14T07:14:49;14.10;;;10.67;;
209;SDS011;90;48.810;9.120;2023-06-14T07:17:16;14.17;;;10.83;;
209;SDS011;90;48.810;9.120;2023-06-14T07:19:43;11.23;;;10.47;;
209;SDS011;90;48.810;9.120;2023-06-14T07:22:10;15.70;;;9.60;;
209;SDS011;90;48.810;9.120;2023-06-14T07:24:39;12.13;;;8.90;;
209;SDS011;90;48.810;9.120;2023-06-14T07:27:07;9.73;;;9.23;;
209;SDS011;90;48.810;9.120;2023-06-14T07:29:34;13.57;;;10.13;;
209;SDS011;90;48.810;9.120;2023-06-14T07:32:00;10.93;;;9.73;;
209;SDS011;90;48.810;9.120;2023-06-14T07:34:27;14.30;;;9.80;;
209;SDS011;90;48.810;9.120;2023-06-14T07:36:54;12.37;;;10.30;;
209;SDS011;90;48.810;9.120;2023-06-14T07:39:21;10.97;;;9.70;;
209;SDS011;90;48.810;9.120;2023-06-14T07:41:49;13.37;;;9.73;;
209;SDS011;90;48.810;9.120;2023-06-14T07:44:16;12.07;;;9.67;;
209;SDS011;90;48.810;9.120;2023-06-14T07:46:43;11.67;;;9.43;;
209;SDS011;90;48.810;9.120;2023-06-14T07:49:11;16.00;;;9.80;;
209;SDS011;90;48.810;9.120;2023-06-14T07:51:38;12.40;;;9.73;;
209;SDS011;90;48.810;9.120;2023-06-14T07:54:05;14.87;;;10.07;;
209;SDS011;90;48.810;9.120;2023-06-14T07:56:32;13.70;;;9.30;;
209;SDS011;90;48.810;9.120;2023-06-14T07:59:00;12.63;;;9.23;;
209;SDS011;90;48.810;9.120;2023-06-14T08:01:27;12.17;;;9.97;;
209;SDS011;90;48.810;9.120;2023-06-14T08:03:54;13.90;;;10.27;;
209;SDS011;90;48.810;9.120;2023-06-14T08:06:21;12.73;;;9.77;;
209;SDS011;90;48.810;9.120;2023-06-14T08:08:47;13.87;;;9.93;;
209;SDS011;90;48.810;9.120;2023-06-14T08:11:14;15.37;;;10.27;;
209;SDS011;90;48.810;9.120;2023-06-14T08:13:41;12.43;;;10.60;;
209;SDS011;90;48.810;9.120;2023-06-14T08:16:09;10.90;;;10.20;;
209;SDS011;90;48.810;9.120;2023-06-14T08:18:36;14.63;;;10.00;;
209;SDS011;90;48.810;9.120;2023-06-14T08:21:03;14.83;;;9.20;;
209;SDS011;90;48.810;9.120;2023-06-14T08:23:29;15.20;;;9.23;;
209;SDS011;90;48.810;9.120;2023-06-14T08:25:56;13.70;;;9.67;;
209;SDS011;90;48.810;9.120;2023-06-14T08:28:23;14.30;;;9.43;;
209;SDS011;90;48.810;9.120;2023-06-14T08:30:50;11.87;;;9.27;;
209;SDS011;90;48.810;9.120;2023-06-14T08:33:18;11.20;;;9.13;;
209;SDS011;90;48.810;9.120;2023-06-14T08:35:45;11.90;;;9.30;;
209;SDS011;90;48.810;9.120;2023-06-14T08:38:12;10.80;;;9.50;;
209;SDS011;90;48.810;9.120;2023-06-14T08:40:39;11.80;;;9.27;;
209;SDS011;90;48.810;9.120;2023-06-14T08:43:07;15.40;;;9.33;;
209;SDS011;90;48.810;9.120;2023-06-14T08:45:34;13.97;;;9.93;;
209;SDS011;90;48.810;9.120;2023-06-14T08:48:01;10.33;;;9.07;;
209;SDS011;90;48.810;9.120;2023-06-14T08:50:29;11.90;;;9.70;;
209;SDS011;90;48.810;9.120;2023-06-14T08:52:59;12.57;;;9.67;;
209;SDS011;90;48.810;9.120;2023-06-14T08:55:28;12.10;;;9.18;;
209;SDS011;90;48.810;9.120;2023-06-14T08:57:55;12.80;;;10.27;;
209;SDS011;90;48.810;9.120;2023-06-14T09:00:23;13.77;;;9.63;;
209;SDS011;90;48.810;9.120;2023-06-14T09:02:51;12.50;;;10.10;;
209;SDS011;90;48.810;9.120;2023-06-14T09:05:22;11.37;;;9.67;;
209;SDS011;90;48.810;9.120;2023-06-14T09:07:50;14.20;;;9.53;;
209;SDS011;90;48.810;9.120;2023-06-14T09:10:20;12.60;;;9.83;;
209;SDS011;90;48.810;9.120;2023-06-14T09:12:47;10.53;;;9.30;;
209;SDS011;90;48.810;9.120;2023-06-14T09:15:14;12.63;;;9.10;;
209;SDS011;90;48.810;9.120;2023-06-14T09:17:42;12.73;;;10.13;;
209;SDS011;90;48.810;9.120;2023-06-14T09:20:09;15.63;;;10.20;;
209;SDS011;90;48.810;9.120;2023-06-14T09:22:38;20.67;;;10.53;;
209;SDS011;90;48.810;9.120;2023-06-14T09:25:08;19.27;;;10.47;;
209;SDS011;90;48.810;9.120;2023-06-14T09:27:36;16.20;;;10.00;;
209;SDS011;90;48.810;9.120;2023-06-14T09:30:06;19.27;;;10.90;;
209;SDS011;90;48.810;9.120;2023-06-14T09:32:36;14.47;;;10.77;;
209;SDS011;90;48.810;9.120;2023-06-14T09:35:03;15.30;;;10.00;;
209;SDS011;90;48.810;9.120;2023-06-14T09:37:32;14.13;;;10.47;;
209;SDS011;90;48.810;9.120;2023-06-14T09:39:59;12.93;;;9.80;;
209;SDS011;90;48.810;9.120;2023-06-14T09:42:27;12.23;;;9.90;;
209;SDS011;90;48.810;9.120;2023-06-14T09:44:55;11.10;;;9.83;;
209;SDS011;90;48.810;9.120;2023-06-14T09:47:23;14.10;;;11.27;;
209;SDS011;90;48.810;9.120;2023-06-14T09:49:50;10.27;;;8.70;;
209;SDS011;90;48.810;9.120;2023-06-14T09:52:19;17.70;;;10.40;;
209;SDS011;90;48.810;9.120;2023-06-14T09:54:47;14.83;;;10.60;;
209;SDS011;90;48.810;9.120;2023-06-14T09:57:15;10.80;;;9.50;;
209;SDS011;90;48.810;9.120;2023-06-14T09:59:45;15.43;;;10.03;;
209;SDS011;90;48.810;9.120;2023-06-14T10:02:14;13.73;;;9.80;;
209;SDS011;90;48.810;9.120;2023-06-14T10:04:50;12.45;;;9.77;;
209;SDS011;90;48.810;9.120;2023-06-14T10:07:22;16.40;;;9.20;;
209;SDS011;90;48.810;9.120;2023-06-14T10:09:52;15.30;;;9.60;;
209;SDS011;90;48.810;9.120;2023-06-14T10:12:19;10.87;;;9.87;;
209;SDS011;90;48.810;9.120;2023-06-14T10:14:49;11.93;;;10.13;;
209;SDS011;90;48.810;9.120;2023-06-14T10:17:20;12.53;;;9.33;;
209;SDS011;90;48.810;9.120;2023-06-14T10:19:55;9.05;;;8.57;;
209;SDS011;90;48.810;9.120;2023-06-14T10:22:30;13.00;;;9.47;;
209;SDS011;90;48.810;9.120;2023-06-14T10:25:01;12.90;;;8.10;;
209;SDS011;90;48.810;9.120;2023-06-14T10:27:32;12.47;;;8.00;;
209;SDS011;90;48.810;9.120;2023-06-14T10:30:04;11.43;;;8.27;;
209;SDS011;90;48.810;9.120;2023-06-14T10:32:33;14.80;;;9.97;;
209;SDS011;90;48.810;9.120;2023-06-14T10:35:00;11.57;;;9.00;;
209;SDS011;90;48.810;9.120;2023-06-14T10:37:27;15.27;;;9.00;;
209;SDS011;90;48.810;9.120;2023-06-14T10:39:54;13.20;;;9.43;;
209;SDS011;90;48.810;9.120;2023-06-14T10:42:21;14.60;;;9.30;;
209;SDS011;90;48.810;9.120;2023-06-14T10:44:53;9.10;;;8.60;;
209;SDS011;90;48.810;9.120;2023-06-14T10:47:23;15.07;;;8.67;;
209;SDS011;90;48.810;9.120;2023-06-14T10:49:52;12.30;;;8.80;;
209;SDS011;90;48.810;9.120;2023-06-14T10:52:21;12.43;;;9.40;;
209;SDS011;90;48.810;9.120;2023-06-14T10:54:56;13.77;;;8.43;;
209;SDS011;90;48.810;9.120;2023-06-14T10:57:27;8.83;;;8.30;;
209;SDS011;90;48.810;9.120;2023-06-14T10:59:53;12.73;;;9.57;;
209;SDS011;90;48.810;9.120;2023-06-14T11:02:33;9.10;;;8.60;;
209;SDS011;90;48.810;9.120;2023-06-14T11:05:17;11.20;;;9.50;;
209;SDS011;90;48.810;9.120;2023-06-14T11:07:53;10.73;;;8.30;;
209;SDS011;90;48.810;9.120;2023-06-14T11:10:32;10.13;;;8.57;;
209;SDS011;90;48.810;9.120;2023-06-14T11:13:03;11.53;;;8.60;;
209;SDS011;90;48.810;9.120;2023-06-14T11:15:30;10.00;;;7.90;;
209;SDS011;90;48.810;9.120;2023-06-14T11:18:00;17.30;;;9.77;;
209;SDS011;90;48.810;9.120;2023-06-14T11:20:29;12.13;;;8.63;;
209;SDS011;90;48.810;9.120;2023-06-14T11:22:57;11.70;;;7.67;;
209;SDS011;90;48.810;9.120;2023-06-14T11:25:24;11.30;;;8.10;;
209;SDS011;90;48.810;9.120;2023-06-14T11:27:53;9.43;;;8.03;;
209;SDS011;90;48.810;9.120;2023-06-14T11:30:20;11.07;;;7.63;;
209;SDS011;90;48.810;9.120;2023-06-14T11:32:47;8.80;;;7.93;;
209;SDS011;90;48.810;9.120;2023-06-14T11:35:16;10.53;;;8.30;;
209;SDS011;90;48.810;9.120;2023-06-14T11:37:44;9.87;;;8.17;;
209;SDS011;90;48.810;9.120;2023-06-14T11:40:11;15.63;;;7.67;;
209;SDS011;90;48.810;9.120;2023-06-14T11:42:39;10.90;;;7.90;;
209;SDS011;90;48.810;9.120;2023-06-14T11:45:08;11.23;;;8.20;;
209;SDS011;90;48.810;9.120;2023-06-14T11:47:36;9.50;;;8.63;;
209;SDS011;90;48.810;9.120;2023-06-14T11:50:04;9.77;;;8.47;;
209;SDS011;90;48.810;9.120;2023-06-14T11:52:35;11.10;;;9.10;;
209;SDS011;90;48.810;9.120;2023-06-14T11:55:02;10.60;;;8.00;;
209;SDS011;90;48.810;9.120;2023-06-14T11:57:30;9.20;;;8.50;;
209;SDS011;90;48.810;9.120;2023-06-14T12:00:00;12.67;;;8.40;;
209;SDS011;90;48.810;9.120;2023-06-14T12:02:31;12.33;;;8.60;;
209;SDS011;90;48.810;9.120;2023-06-14T12:05:04;11.47;;;8.90;;
209;SDS011;90;48.810;9.120;2023-06-14T12:07:32;10.73;;;8.87;;
209;SDS011;90;48.810;9.120;2023-06-14T12:10:04;9.60;;;9.03;;
209;SDS011;90;48.810;9.120;2023-06-14T12:12:34;9.33;;;8.77;;
209;SDS011;90;48.810;9.120;2023-06-14T12:15:02;8.87;;;8.23;;
209;SDS011;90;48.810;9.120;2023-06-14T12:17:31;10.93;;;8.53;;
209;SDS011;90;48.810;9.120;2023-06-14T12:19:58;9.10;;;8.50;;
209;SDS011;90;48.810;9.120;2023-06-14T12:22:32;9.50;;;8.50;;
209;SDS011;90;48.810;9.120;2023-06-14T12:25:01;8.77;;;8.30;;
209;SDS011;90;48.810;9.120;2023-06-14T12:27:28;9.30;;;8.80;;
209;SDS011;90;48.810;9.120;2023-06-14T12:29:59;10.73;;;8.60;;
209;SDS011;90;48.810;9.120;2023-06-14T12:32:26;12.13;;;9.40;;
209;SDS011;90;48.810;9.120;2023-06-14T12:34:53;9.50;;;8.60;;
209;SDS011;90;48.810;9.120;2023-06-14T12:37:20;11.00;;;8.03;;
209;SDS011;90;48.810;9.120;2023-06-14T12:39:48;10.25;;;8.32;;
209;SDS011;90;48.810;9.120;2023-06-14T12:42:16;10.63;;;8.60;;
209;SDS011;90;48.810;9.120;2023-06-14T12:44:43;9.53;;;8.53;;
209;SDS011;90;48.810;9.120;2023-06-14T12:47:09;13.47;;;8.60;;
209;SDS011;90;48.810;9.120;2023-06-14T12:49:38;9.10;;;7.53;;
209;SDS011;90;48.810;9.120;2023-06-14T12:52:07;8.83;;;8.10;;
209;SDS011;90;48.810;9.120;2023-06-14T12:54:34;10.20;;;8.10;;
209;SDS011;90;48.810;9.120;2023-06-14T12:57:02;8.67;;;8.13;;
209;SDS011;90;48.810;9.120;2023-06-14T12:59:29;9.27;;;8.63;;
209;SDS011;90;48.810;9.120;2023-06-14T13:01:59;11.03;;;8.30;;
209;SDS011;90;48.810;9.120;2023-06-14T13:04:35;11.37;;;8.63;;
209;SDS011;90;48.810;9.120;2023-06-14T13:07:02;10.20;;;8.43;;
209;SDS011;90;48.810;9.120;2023-06-14T13:09:29;13.87;;;8.13;;
209;SDS011;90;48.810;9.120;2023-06-14T13:11:56;10.20;;;8.60;;
209;SDS011;90;48.810;9.120;2023-06-14T13:14:24;12.10;;;8.47;;
209;SDS011;90;48.810;9.120;2023-06-14T13:16:51;10.10;;;8.40;;
209;SDS011;90;48.810;9.120;2023-06-14T13:19:18;9.27;;;8.77;;
209;SDS011;90;48.810;9.120;2023-06-14T13:21:45;10.83;;;8.97;;
209;SDS011;90;48.810;9.120;2023-06-14T13:24:12;11.00;;;7.80;;
209;SDS011;90;48.810;9.120;2023-06-14T13:26:38;10.17;;;8.53;;
209;SDS011;90;48.810;9.120;2023-06-14T13:29:05;13.77;;;8.97;;
209;SDS011;90;48.810;9.120;2023-06-14T13:31:33;8.77;;;8.27;;
209;SDS011;90;48.810;9.120;2023-06-14T13:34:00;9.57;;;8.30;;
209;SDS011;90;48.810;9.120;2023-06-14T13:36:27;10.80;;;9.00;;
209;SDS011;90;48.810;9.120;2023-06-14T13:38:55;12.00;;;9.40;;
209;SDS011;90;48.810;9.120;2023-06-14T13:41:23;17.63;;;8.37;;
209;SDS011;90;48.810;9.120;2023-06-14T13:43:56;10.93;;;8.90;;
209;SDS011;90;48.810;9.120;2023-06-14T13:46:23;8.33;;;7.90;;
209;SDS011;90;48.810;9.120;2023-06-14T13:48:51;9.03;;;8.53;;
209;SDS011;90;48.810;9.120;2023-06-14T13:51:19;11.60;;;7.40;;
209;SDS011;90;48.810;9.120;2023-06-14T13:53:46;10.23;;;8.40;;
209;SDS011;90;48.810;9.120;2023-06-14T13:56:15;10.03;;;8.27;;
209;SDS011;90;48.810;9.120;2023-06-14T13:58:43;10.20;;;8.67;;
209;SDS011;90;48.810;9.120;2023-06-14T14:01:10;8.30;;;7.90;;
209;SDS011;90;48.810;9.120;2023-06-14T14:03:37;9.63;;;8.40;;
209;SDS011;90;48.810;9.120;2023-06-14T14:06:05;9.10;;;8.50;;
209;SDS011;90;48.810;9.120;2023-06-14T14:08:32;8.53;;;8.03;;
209;SDS011;90;48.810;9.120;2023-06-14T14:11:01;9.87;;;9.30;;
209;SDS011;90;48.810;9.120;2023-06-14T14:13:28;10.33;;;9.80;;
209;SDS011;90;48.810;9.120;2023-06-14T14:15:55;8.37;;;7.90;;
209;SDS011;90;48.810;9.120;2023-06-14T14:18:22;9.10;;;8.60;;
209;SDS011;90;48.810;9.120;2023-06-14T14:20:49;12.60;;;9.00;;
209;SDS011;90;48.810;9.120;2023-06-14T14:23:17;9.57;;;9.07;;
209;SDS011;90;48.810;9.120;2023-06-14T14:25:45;8.87;;;8.37;;
209;SDS011;90;48.810;9.120;2023-06-14T14:28:11;10.40;;;8.43;;
209;SDS011;90;48.810;9.120;2023-06-14T14:30:40;10.80;;;8.93;;
209;SDS011;90;48.810;9.120;2023-06-14T14:33:07;11.13;;;8.83;;
209;SDS011;90;48.810;9.120;2023-06-14T14:35:36;13.90;;;8.33;;
209;SDS011;90;48.810;9.120;2023-06-14T14:38:03;15.80;;;9.53;;
209;SDS011;90;48.810;9.120;2023-06-14T14:40:31;11.37;;;8.87;;
209;SDS011;90;48.810;9.120;2023-06-14T14:42:58;9.57;;;8.23;;
209;SDS011;90;48.810;9.120;2023-06-14T14:45:24;10.27;;;8.13;;
209;SDS011;90;48.810;9.120;2023-06-14T14:47:51;8.80;;;8.30;;
209;SDS011;90;48.810;9.120;2023-06-14T14:50:18;10.07;;;9.00;;
209;SDS011;90;48.810;9.120;2023-06-14T14:52:45;10.03;;;8.70;;
209;SDS011;90;48.810;9.120;2023-06-14T14:55:11;9.20;;;8.30;;
209;SDS011;90;48.810;9.120;2023-06-14T14:57:39;10.87;;;9.37;;
209;SDS011;90;48.810;9.120;2023-06-14T15:00:06;9.00;;;8.50;;
209;SDS011;90;48.810;9.120;2023-06-14T15:02:34;10.63;;;8.83;;
209;SDS011;90;48.810;9.120;2023-06-14T15:05:01;9.00;;;8.13;;
209;SDS011;90;48.810;9.120;2023-06-14T15:07:28;9.80;;;8.63;;
209;SDS011;90;48.810;9.120;2023-06-14T15:09:54;10.30;;;9.30;;
209;SDS011;90;48.810;9.120;2023-06-14T15:12:21;9.73;;;8.87;;
209;SDS011;90;48.810;9.120;2023-06-14T15:14:49;9.77;;;9.13;;
209;SDS011;90;48.810;9.120;2023-06-14T15:17:16;9.73;;;9.20;;
209;SDS011;90;48.810;9.120;2023-06-14T15:19:43;10.30;;;9.30;;
209;SDS011;90;48.810;9.120;2023-06-14T15:22:10;9.37;;;8.70;;
209;SDS011;90;48.810;9.120;2023-06-14T15:24:37;9.30;;;8.80;;
209;SDS011;90;48.810;9.120;2023-06-14T15:27:04;19.60;;;9.40;;
209;SDS011;90;48.810;9.120;2023-06-14T15:29:31;9.87;;;9.37;;
209;SDS011;90;48.810;9.120;2023-06-14T15:32:00;13.93;;;8.53;;
209;SDS011;90;48.810;9.120;2023-06-14T15:34:27;44.20;;;12.23;;
209;SDS011;90;48.810;9.120;2023-06-14T15:36:54;10.90;;;9.20;;
209;SDS011;90;48.810;9.120;2023-06-14T15:39:21;11.27;;;8.83;;
209;SDS011;90;48.810;9.120;2023-06-14T15:41:48;11.70;;;9.60;;
209;SDS011;90;48.810;9.120;2023-06-14T15:44:16;10.60;;;10.00;;
209;SDS011;90;48.810;9.120;2023-06-14T15:46:43;17.00;;;9.87;;
209;SDS011;90;48.810;9.120;2023-06-14T15:49:11;11.00;;;9.70;;
209;SDS011;90;48.810;9.120;2023-06-14T15:51:39;10.13;;;9.53;;
209;SDS011;90;48.810;9.120;2023-06-14T15:54:06;11.63;;;9.43;;